createdAt,value
2022-09-11T00:02:06.825Z,12.18
2022-09-11T00:04:33.345Z,12.25
2022-09-11T00:07:00.026Z,14.48
2022-09-11T00:09:26.825Z,14.77
2022-09-11T00:11:53.448Z,11.43
2022-09-11T00:14:20.105Z,15.05
2022-09-11T00:16:47.166Z,14.63
2022-09-11T00:19:18.922Z,18.60
2022-09-11T00:21:46.162Z,15.45
2022-09-11T00:24:12.814Z,15.15
2022-09-11T00:26:41.094Z,13.13
2022-09-11T00:29:08.081Z,10.35
2022-09-11T00:31:34.855Z,10.07
2022-09-11T00:34:01.400Z,11.75
2022-09-11T00:36:31.529Z,15.90
2022-09-11T00:38:59.907Z,12.73
2022-09-11T00:41:39.351Z,10.40
2022-09-11T00:44:27.200Z,12.20
2022-09-11T00:46:56.754Z,15.00
2022-09-11T00:49:30.514Z,11.05
2022-09-11T00:52:08.534Z,13.13
2022-09-11T00:54:41.452Z,11.68
2022-09-11T00:57:09.495Z,11.27
2022-09-11T00:59:40.059Z,10.95
2022-09-11T01:02:12.167Z,17.90
2022-09-11T01:04:38.618Z,11.05
2022-09-11T01:07:33.964Z,14.35
2022-09-11T01:10:00.520Z,19.08
2022-09-11T01:12:57.826Z,15.20
2022-09-11T01:15:35.668Z,12.75
2022-09-11T01:18:14.991Z,17.98
2022-09-11T01:21:32.482Z,14.90
2022-09-11T01:24:23.810Z,16.48
2022-09-11T01:26:50.168Z,16.08
2022-09-11T01:29:22.723Z,17.38
2022-09-11T01:32:16.433Z,14.00
2022-09-11T01:34:57.842Z,14.27
2022-09-11T01:37:38.903Z,13.55
2022-09-11T01:40:16.547Z,21.08
2022-09-11T01:42:46.035Z,12.70
2022-09-11T01:45:17.080Z,11.40
2022-09-11T01:47:46.391Z,11.38
2022-09-11T01:50:15.414Z,13.95
2022-09-11T01:52:51.583Z,16.65
2022-09-11T01:55:22.694Z,16.13
2022-09-11T01:57:58.725Z,12.32
2022-09-11T02:00:25.299Z,13.88
2022-09-11T02:02:59.464Z,9.52
2022-09-11T02:05:56.561Z,14.05
2022-09-11T02:08:52.922Z,14.27
2022-09-11T02:11:20.614Z,14.10
2022-09-11T02:14:06.825Z,16.15
2022-09-11T02:16:59.388Z,13.95
2022-09-11T02:19:29.507Z,13.38
2022-09-11T02:21:58.462Z,11.98
2022-09-11T02:24:26.235Z,10.93
2022-09-11T02:27:01.089Z,12.00
2022-09-11T02:29:27.756Z,11.63
2022-09-11T02:31:54.554Z,11.63
2022-09-11T02:34:32.684Z,11.13
2022-09-11T02:37:26.599Z,14.20
2022-09-11T02:40:12.759Z,12.70
2022-09-11T02:42:45.492Z,11.57
2022-09-11T02:45:28.656Z,13.65
2022-09-11T02:48:15.806Z,12.40
2022-09-11T02:50:48.136Z,14.75
2022-09-11T02:53:26.694Z,12.13
2022-09-11T02:56:04.705Z,11.50
2022-09-11T02:58:34.694Z,14.82
2022-09-11T03:01:02.662Z,14.30
2022-09-11T03:03:37.424Z,11.68
2022-09-11T03:06:04.375Z,11.50
2022-09-11T03:08:32.228Z,9.65
2022-09-11T03:10:58.782Z,11.77
2022-09-11T03:13:25.193Z,10.82
2022-09-11T03:15:51.988Z,17.30
2022-09-11T03:18:18.448Z,10.20
2022-09-11T03:20:49.767Z,11.00
2022-09-11T03:23:16.226Z,13.85
2022-09-11T03:25:42.705Z,10.23
2022-09-11T03:28:09.250Z,14.82
2022-09-11T03:30:35.906Z,15.65
2022-09-11T03:33:02.645Z,15.02
2022-09-11T03:35:29.286Z,12.75
2022-09-11T03:37:55.755Z,15.68
2022-09-11T03:40:22.256Z,17.90
2022-09-11T03:42:48.795Z,17.35
2022-09-11T03:45:16.379Z,13.10
2022-09-11T03:47:42.836Z,13.15
2022-09-11T03:50:10.269Z,17.75
2022-09-11T03:52:36.978Z,13.52
2022-09-11T03:55:07.123Z,14.60
2022-09-11T03:57:34.470Z,13.02
2022-09-11T04:00:03.871Z,15.02
2022-09-11T04:02:30.356Z,16.58
2022-09-11T04:04:56.773Z,15.40
2022-09-11T04:07:23.744Z,18.92
2022-09-11T04:09:50.171Z,17.90
2022-09-11T04:12:16.717Z,17.10
2022-09-11T04:14:43.159Z,15.70
2022-09-11T04:17:09.796Z,18.08
2022-09-11T04:19:36.256Z,16.85
2022-09-11T04:22:03.957Z,15.68
2022-09-11T04:24:30.410Z,18.10
2022-09-11T04:27:00.589Z,18.48
2022-09-11T04:29:28.510Z,21.30
2022-09-11T04:31:56.142Z,29.88
2022-09-11T04:34:22.617Z,29.45
2022-09-11T04:36:49.031Z,26.92
2022-09-11T04:39:16.079Z,25.50
2022-09-11T04:41:44.168Z,26.48
2022-09-11T04:44:10.637Z,24.88
2022-09-11T04:46:37.090Z,28.75
2022-09-11T04:49:03.518Z,30.35
2022-09-11T04:51:32.728Z,31.75
2022-09-11T04:54:00.526Z,28.83
2022-09-11T04:56:29.548Z,29.83
2022-09-11T04:58:58.965Z,28.17
2022-09-11T05:01:27.387Z,30.55
2022-09-11T05:03:53.922Z,30.25
2022-09-11T05:06:20.460Z,33.03
2022-09-11T05:08:47.242Z,34.55
2022-09-11T05:11:16.361Z,32.20
2022-09-11T05:13:43.555Z,32.83
2022-09-11T05:16:12.269Z,30.52
2022-09-11T05:18:40.352Z,29.70
2022-09-11T05:21:16.663Z,31.52
2022-09-11T05:23:47.895Z,26.85
2022-09-11T05:26:16.771Z,27.08
2022-09-11T05:28:43.257Z,30.48
2022-09-11T05:31:18.031Z,32.13
2022-09-11T05:33:45.376Z,28.65
2022-09-11T05:36:13.296Z,35.20
2022-09-11T05:38:40.519Z,29.52
2022-09-11T05:41:09.389Z,30.15
2022-09-11T05:43:36.201Z,32.40
2022-09-11T05:46:03.296Z,32.25
2022-09-11T05:48:31.307Z,32.67
2022-09-11T05:51:02.777Z,35.35
2022-09-11T05:53:33.770Z,35.08
2022-09-11T05:56:14.177Z,34.63
2022-09-11T05:58:40.597Z,36.65
2022-09-11T06:01:10.165Z,36.83
2022-09-11T06:03:38.706Z,34.22
2022-09-11T06:06:08.332Z,38.53
2022-09-11T06:08:35.867Z,38.20
2022-09-11T06:11:06.607Z,37.58
2022-09-11T06:13:36.447Z,38.57
2022-09-11T06:16:03.145Z,41.50
2022-09-11T06:18:29.734Z,37.72
2022-09-11T06:21:02.775Z,38.78
2022-09-11T06:23:29.418Z,39.05
2022-09-11T06:26:03.399Z,38.92
2022-09-11T06:28:29.828Z,39.15
2022-09-11T06:30:56.353Z,38.42
2022-09-11T06:33:22.789Z,35.40
2022-09-11T06:35:59.472Z,35.55
2022-09-11T06:38:26.999Z,42.60
2022-09-11T06:40:54.237Z,39.53
2022-09-11T06:43:21.135Z,36.60
2022-09-11T06:45:48.359Z,34.30
2022-09-11T06:48:21.495Z,35.97
2022-09-11T06:50:47.898Z,31.85
2022-09-11T06:53:15.191Z,36.60
2022-09-11T06:55:41.606Z,32.65
2022-09-11T06:58:08.728Z,28.77
2022-09-11T07:00:36.619Z,31.83
2022-09-11T07:03:04.417Z,29.85
2022-09-11T07:05:31.049Z,38.95
2022-09-11T07:07:57.871Z,28.45
2022-09-11T07:10:24.647Z,32.08
2022-09-11T07:12:54.671Z,30.98
2022-09-11T07:15:21.697Z,29.58
2022-09-11T07:17:48.747Z,33.80
2022-09-11T07:20:17.085Z,31.13
2022-09-11T07:22:45.488Z,28.67
2022-09-11T07:25:12.037Z,26.88
2022-09-11T07:27:38.477Z,31.05
2022-09-11T07:30:05.458Z,28.80
2022-09-11T07:32:31.883Z,27.77
2022-09-11T07:34:58.475Z,24.35
2022-09-11T07:37:24.941Z,30.15
2022-09-11T07:39:51.481Z,28.25
2022-09-11T07:42:17.943Z,25.63
2022-09-11T07:44:45.108Z,26.30
2022-09-11T07:47:11.667Z,21.83
2022-09-11T07:49:38.097Z,33.45
2022-09-11T07:52:04.719Z,25.40
2022-09-11T07:54:31.212Z,25.17
2022-09-11T07:56:58.075Z,20.27
2022-09-11T07:59:24.825Z,24.42
2022-09-11T08:01:51.333Z,20.20
2022-09-11T08:04:17.812Z,20.90
2022-09-11T08:06:44.689Z,21.27
2022-09-11T08:09:15.059Z,19.27
2022-09-11T08:11:48.485Z,20.52
2022-09-11T08:14:17.575Z,20.00
2022-09-11T08:16:44.860Z,20.88
2022-09-11T08:19:18.189Z,20.30
2022-09-11T08:21:44.980Z,20.52
2022-09-11T08:24:17.069Z,21.17
2022-09-11T08:26:48.628Z,21.70
2022-09-11T08:29:15.572Z,20.73
2022-09-11T08:31:42.052Z,23.83
2022-09-11T08:34:10.256Z,20.77
2022-09-11T08:36:36.973Z,22.52
2022-09-11T08:39:04.018Z,22.77
2022-09-11T08:41:30.442Z,20.23
2022-09-11T08:44:02.874Z,20.42
2022-09-11T08:46:36.531Z,17.52
2022-09-11T08:49:19.242Z,22.02
2022-09-11T08:51:48.864Z,18.13
2022-09-11T08:54:33.448Z,18.27
2022-09-11T08:57:16.699Z,20.13
2022-09-11T09:00:02.582Z,19.05
2022-09-11T09:02:31.695Z,17.92
2022-09-11T09:05:00.966Z,21.20
2022-09-11T09:07:48.618Z,18.33
2022-09-11T09:10:35.310Z,16.52
2022-09-11T09:13:49.399Z,16.25
2022-09-11T09:16:43.968Z,18.70
2022-09-11T09:19:15.697Z,18.20
2022-09-11T09:21:45.245Z,18.67
2022-09-11T09:24:19.820Z,17.52
2022-09-11T09:26:52.677Z,19.33
2022-09-11T09:29:22.874Z,19.42
2022-09-11T09:32:05.633Z,16.40
2022-09-11T09:34:37.408Z,18.58
2022-09-11T09:37:17.932Z,23.45
2022-09-11T09:39:45.628Z,17.50
2022-09-11T09:42:36.816Z,16.30
2022-09-11T09:45:27.509Z,18.33
2022-09-11T09:47:53.994Z,15.60
2022-09-11T09:50:28.366Z,12.93
2022-09-11T09:53:11.448Z,14.85
2022-09-11T09:55:41.259Z,15.38
2022-09-11T09:58:07.706Z,12.90
2022-09-11T10:00:37.623Z,17.13
2022-09-11T10:03:19.673Z,11.50
2022-09-11T10:05:48.283Z,10.45
2022-09-11T10:08:33.686Z,13.27
2022-09-11T10:11:03.689Z,15.60
2022-09-11T10:13:36.913Z,12.57
2022-09-11T10:16:05.234Z,14.02
2022-09-11T10:18:36.045Z,18.10
2022-09-11T10:21:11.374Z,14.93
2022-09-11T10:23:50.246Z,12.18
2022-09-11T10:26:45.799Z,14.02
2022-09-11T10:29:17.913Z,12.10
2022-09-11T10:31:55.952Z,14.32
2022-09-11T10:34:25.311Z,16.92
2022-09-11T10:36:57.063Z,10.63
2022-09-11T10:39:26.227Z,12.15
2022-09-11T10:41:58.918Z,12.10
2022-09-11T10:44:27.399Z,11.38
2022-09-11T10:47:15.361Z,12.43
2022-09-11T10:49:42.429Z,13.10
2022-09-11T10:52:08.783Z,11.82
2022-09-11T10:54:41.309Z,13.50
2022-09-11T10:57:22.883Z,10.43
2022-09-11T11:00:16.535Z,9.07
2022-09-11T11:02:48.845Z,13.27
2022-09-11T11:05:37.302Z,10.60
2022-09-11T11:08:15.837Z,12.35
2022-09-11T11:11:03.727Z,12.40
2022-09-11T11:14:05.957Z,12.85
2022-09-11T11:16:41.772Z,9.95
2022-09-11T11:19:35.423Z,11.23
2022-09-11T11:22:24.826Z,12.43
2022-09-11T11:25:02.519Z,11.63
2022-09-11T11:27:31.645Z,11.88
2022-09-11T11:30:03.778Z,13.05
2022-09-11T11:32:59.362Z,11.00
2022-09-11T11:35:41.465Z,13.75
2022-09-11T11:38:34.344Z,11.35
2022-09-11T11:41:09.765Z,10.88
2022-09-11T11:43:40.836Z,10.70
2022-09-11T11:46:30.077Z,9.65
2022-09-11T11:48:59.711Z,10.95
2022-09-11T11:51:29.567Z,13.90
2022-09-11T11:54:20.346Z,9.90
2022-09-11T11:56:52.198Z,9.73
2022-09-11T11:59:52.076Z,11.00
2022-09-11T12:02:27.787Z,8.52
2022-09-11T12:05:02.903Z,11.88
2022-09-11T12:07:32.520Z,8.90
2022-09-11T12:10:01.474Z,8.52
2022-09-11T12:12:32.334Z,12.93
2022-09-11T12:15:08.539Z,9.93
2022-09-11T12:17:38.266Z,11.32
2022-09-11T12:20:10.652Z,8.50
2022-09-11T12:22:45.056Z,10.77
2022-09-11T12:25:32.026Z,7.28
2022-09-11T12:28:24.184Z,7.00
2022-09-11T12:31:05.425Z,7.68
2022-09-11T12:33:40.850Z,7.60
2022-09-11T12:36:44.271Z,6.70
2022-09-11T12:39:39.474Z,12.02
2022-09-11T12:42:28.346Z,6.75
2022-09-11T12:44:55.049Z,6.32
2022-09-11T12:47:24.206Z,4.75
2022-09-11T12:50:07.370Z,5.22
2022-09-11T12:52:40.200Z,5.97
2022-09-11T12:55:35.478Z,8.18
2022-09-11T12:58:06.673Z,6.55
2022-09-11T13:00:39.066Z,9.43
2022-09-11T13:03:15.211Z,7.93
2022-09-11T13:05:43.190Z,6.13
2022-09-11T13:08:21.213Z,9.10
2022-09-11T13:10:47.968Z,6.18
2022-09-11T13:13:43.918Z,7.38
2022-09-11T13:16:28.905Z,6.97
2022-09-11T13:19:13.364Z,8.63
2022-09-11T13:21:41.878Z,5.60
2022-09-11T13:24:40.665Z,8.68
2022-09-11T13:27:15.387Z,6.03
2022-09-11T13:29:43.469Z,6.68
2022-09-11T13:32:14.395Z,6.95
2022-09-11T13:34:46.293Z,8.50
2022-09-11T13:37:16.285Z,7.63
2022-09-11T13:39:44.785Z,8.25
2022-09-11T13:42:16.218Z,5.95
2022-09-11T13:44:49.147Z,7.60
2022-09-11T13:47:20.179Z,7.55
2022-09-11T13:49:48.888Z,7.03
2022-09-11T13:52:16.227Z,5.95
2022-09-11T13:54:49.162Z,6.32
2022-09-11T13:57:23.877Z,5.13
2022-09-11T14:00:02.210Z,6.35
2022-09-11T14:02:34.766Z,5.65
2022-09-11T14:05:13.763Z,5.80
2022-09-11T14:08:02.159Z,7.90
2022-09-11T14:10:33.202Z,6.43
2022-09-11T14:13:23.102Z,5.88
2022-09-11T14:15:49.501Z,5.45
2022-09-11T14:18:41.901Z,5.05
2022-09-11T14:21:39.185Z,7.43
2022-09-11T14:24:26.537Z,6.13
2022-09-11T14:26:53.946Z,6.90
2022-09-11T14:29:29.396Z,8.73
2022-09-11T14:32:21.653Z,7.72
2022-09-11T14:34:48.270Z,5.97
2022-09-11T14:37:16.671Z,3.70
2022-09-11T14:39:46.760Z,8.13
2022-09-11T14:42:21.136Z,4.28
2022-09-11T14:44:47.767Z,7.05
2022-09-11T14:47:22.894Z,5.93
2022-09-11T14:49:51.650Z,6.88
2022-09-11T14:52:20.603Z,7.00
2022-09-11T14:54:48.079Z,5.15
2022-09-11T14:57:21.088Z,4.65
2022-09-11T14:59:47.906Z,7.95
2022-09-11T15:02:17.232Z,9.32
2022-09-11T15:04:43.826Z,6.10
2022-09-11T15:07:12.514Z,5.55
2022-09-11T15:09:39.676Z,7.22
2022-09-11T15:12:08.444Z,10.32
2022-09-11T15:14:54.794Z,5.40
2022-09-11T15:17:21.476Z,5.57
2022-09-11T15:19:49.831Z,6.15
2022-09-11T15:22:16.467Z,7.70
2022-09-11T15:24:43.197Z,5.30
2022-09-11T15:27:10.254Z,6.95
2022-09-11T15:29:38.561Z,4.95
2022-09-11T15:32:06.203Z,5.95
2022-09-11T15:34:33.152Z,3.67
2022-09-11T15:37:00.279Z,5.43
2022-09-11T15:39:27.876Z,6.72
2022-09-11T15:41:55.687Z,9.77
2022-09-11T15:44:25.165Z,4.90
2022-09-11T15:46:53.404Z,5.32
2022-09-11T15:49:22.139Z,3.90
2022-09-11T15:51:49.870Z,5.03
2022-09-11T15:54:16.348Z,3.92
2022-09-11T15:56:43.745Z,5.82
2022-09-11T15:59:15.236Z,4.30
2022-09-11T16:01:43.360Z,4.15
2022-09-11T16:04:12.675Z,6.05
2022-09-11T16:06:42.354Z,6.25
2022-09-11T16:09:13.013Z,3.17
2022-09-11T16:11:40.966Z,5.40
2022-09-11T16:14:08.791Z,6.25
2022-09-11T16:16:35.510Z,2.80
2022-09-11T16:19:01.975Z,4.68
2022-09-11T16:21:28.938Z,5.10
2022-09-11T16:24:00.634Z,2.58
2022-09-11T16:26:29.001Z,2.58
2022-09-11T16:28:55.477Z,3.13
2022-09-11T16:31:21.988Z,6.35
2022-09-11T16:33:49.364Z,4.32
2022-09-11T16:36:18.379Z,2.28
2022-09-11T16:38:45.552Z,3.60
2022-09-11T16:41:18.797Z,8.13
2022-09-11T16:43:50.250Z,6.47
2022-09-11T16:46:19.643Z,2.53
2022-09-11T16:48:50.469Z,5.20
2022-09-11T16:51:20.779Z,2.13
2022-09-11T16:53:47.641Z,2.10
2022-09-11T16:56:16.810Z,2.80
2022-09-11T16:58:44.033Z,4.60
2022-09-11T17:01:14.786Z,2.38
2022-09-11T17:03:43.500Z,2.67
2022-09-11T17:06:11.443Z,5.03
2022-09-11T17:08:39.169Z,4.45
2022-09-11T17:11:09.456Z,3.45
2022-09-11T17:13:36.856Z,4.97
2022-09-11T17:16:12.655Z,5.70
2022-09-11T17:18:47.289Z,7.60
2022-09-11T17:21:14.147Z,3.10
2022-09-11T17:23:40.759Z,4.05
2022-09-11T17:26:12.695Z,4.38
2022-09-11T17:28:40.291Z,2.33
2022-09-11T17:31:09.121Z,4.72
2022-09-11T17:33:38.120Z,4.47
2022-09-11T17:36:06.406Z,4.25
2022-09-11T17:38:33.843Z,3.63
2022-09-11T17:41:03.840Z,5.90
2022-09-11T17:43:30.909Z,2.25
2022-09-11T17:46:02.362Z,4.00
2022-09-11T17:48:28.935Z,2.58
2022-09-11T17:51:13.419Z,6.38
2022-09-11T17:53:42.320Z,3.75
2022-09-11T17:56:16.513Z,3.90
2022-09-11T17:58:44.912Z,6.57
2022-09-11T18:01:16.586Z,4.82
2022-09-11T18:03:44.264Z,5.32
2022-09-11T18:06:32.572Z,8.38
2022-09-11T18:09:01.817Z,3.70
2022-09-11T18:11:29.587Z,6.38
2022-09-11T18:13:56.280Z,3.78
2022-09-11T18:16:22.872Z,4.13
2022-09-11T18:18:49.614Z,6.18
2022-09-11T18:21:16.080Z,4.82
2022-09-11T18:23:45.605Z,5.97
2022-09-11T18:26:40.038Z,4.82
2022-09-11T18:29:10.482Z,7.05
2022-09-11T18:31:40.028Z,5.20
2022-09-11T18:34:07.280Z,6.88
2022-09-11T18:36:33.766Z,6.15
2022-09-11T18:39:02.034Z,8.02
2022-09-11T18:41:31.293Z,6.43
2022-09-11T18:44:00.079Z,6.20
2022-09-11T18:46:27.323Z,7.28
2022-09-11T18:48:55.837Z,6.18
2022-09-11T18:51:22.597Z,8.27
2022-09-11T18:53:51.941Z,7.53
2022-09-11T18:56:19.753Z,7.32
2022-09-11T18:58:48.423Z,10.32
2022-09-11T19:01:18.302Z,7.88
2022-09-11T19:03:44.978Z,8.20
2022-09-11T19:06:14.474Z,9.45
2022-09-11T19:08:43.079Z,12.30
2022-09-11T19:11:10.481Z,12.93
2022-09-11T19:13:38.144Z,9.15
2022-09-11T19:16:05.361Z,8.18
2022-09-11T19:18:32.206Z,7.57
2022-09-11T19:21:10.199Z,7.82
2022-09-11T19:23:39.107Z,9.27
2022-09-11T19:26:12.920Z,7.80
2022-09-11T19:28:43.639Z,12.93
2022-09-11T19:31:13.954Z,7.73
2022-09-11T19:33:41.848Z,9.45
2022-09-11T19:36:11.801Z,6.82
2022-09-11T19:38:43.085Z,8.93
2022-09-11T19:41:12.842Z,8.35
2022-09-11T19:43:40.914Z,6.88
2022-09-11T19:46:12.950Z,7.13
2022-09-11T19:48:40.799Z,15.25
2022-09-11T19:51:21.219Z,9.15
2022-09-11T19:53:49.427Z,8.30
2022-09-11T19:56:16.703Z,12.32
2022-09-11T19:58:43.226Z,9.40
2022-09-11T20:01:15.063Z,11.20
2022-09-11T20:03:44.029Z,9.82
2022-09-11T20:06:12.240Z,14.73
2022-09-11T20:08:42.879Z,12.40
2022-09-11T20:11:12.955Z,14.88
2022-09-11T20:13:39.439Z,10.93
2022-09-11T20:16:11.762Z,7.85
2022-09-11T20:18:38.405Z,9.82
2022-09-11T20:21:07.497Z,8.02
2022-09-11T20:23:34.553Z,9.18
2022-09-11T20:26:16.313Z,11.68
2022-09-11T20:28:44.176Z,9.73
2022-09-11T20:31:25.369Z,10.15
2022-09-11T20:33:52.153Z,8.32
2022-09-11T20:36:19.557Z,7.65
2022-09-11T20:38:51.194Z,7.72
2022-09-11T20:43:44.451Z,7.47
2022-09-11T20:46:11.459Z,9.07
2022-09-11T20:48:38.059Z,12.18
2022-09-11T20:51:07.542Z,11.27
2022-09-11T20:53:34.720Z,7.15
2022-09-11T20:56:06.863Z,8.40
2022-09-11T20:58:33.800Z,11.23
2022-09-11T21:01:00.823Z,7.95
2022-09-11T21:03:28.403Z,9.82
2022-09-11T21:05:56.075Z,13.77
2022-09-11T21:08:24.891Z,16.85
2022-09-11T21:10:51.559Z,10.30
2022-09-11T21:13:18.102Z,7.90
2022-09-11T21:15:46.166Z,9.43
2022-09-11T21:18:13.135Z,8.02
2022-09-11T21:20:40.241Z,9.25
2022-09-11T21:23:07.463Z,9.13
2022-09-11T21:25:39.479Z,9.50
2022-09-11T21:28:05.960Z,13.13
2022-09-11T21:30:32.488Z,9.75
2022-09-11T21:32:58.952Z,8.15
2022-09-11T21:35:25.415Z,7.18
2022-09-11T21:37:51.955Z,8.48
2022-09-11T21:40:18.375Z,9.93
2022-09-11T21:42:44.844Z,7.68
2022-09-11T21:45:11.223Z,7.00
2022-09-11T21:47:37.687Z,11.00
2022-09-11T21:50:06.939Z,7.13
2022-09-11T21:52:33.900Z,8.43
2022-09-11T21:55:00.458Z,8.98
2022-09-11T21:57:28.761Z,6.38
2022-09-11T21:59:58.826Z,7.88
2022-09-11T22:02:26.168Z,9.20
2022-09-11T22:04:53.272Z,9.65
2022-09-11T22:07:20.381Z,10.80
2022-09-11T22:09:48.482Z,8.75
2022-09-11T22:12:15.913Z,8.85
2022-09-11T22:14:44.320Z,7.45
2022-09-11T22:17:11.846Z,7.85
2022-09-11T22:19:38.330Z,8.85
2022-09-11T22:22:04.881Z,11.30
2022-09-11T22:24:31.585Z,6.18
2022-09-11T22:26:58.010Z,9.38
2022-09-11T22:29:24.448Z,7.40
2022-09-11T22:31:51.030Z,8.70
2022-09-11T22:34:17.785Z,8.00
2022-09-11T22:36:44.200Z,7.22
2022-09-11T22:39:10.649Z,5.78
2022-09-11T22:41:37.140Z,6.30
2022-09-11T22:44:03.982Z,10.32
2022-09-11T22:46:30.449Z,6.45
2022-09-11T22:48:56.910Z,6.25
2022-09-11T22:51:23.333Z,7.78
2022-09-11T22:53:49.861Z,9.07
2022-09-11T22:56:16.751Z,6.82
2022-09-11T22:58:43.254Z,6.10
2022-09-11T23:01:11.533Z,5.60
2022-09-11T23:03:38.213Z,7.90
2022-09-11T23:06:23.387Z,7.03
2022-09-11T23:08:49.888Z,4.13
2022-09-11T23:11:19.598Z,5.15
2022-09-11T23:13:48.702Z,7.05
2022-09-11T23:16:27.198Z,6.50
2022-09-11T23:18:55.679Z,5.65
2022-09-11T23:21:22.437Z,7.38
2022-09-11T23:23:54.640Z,6.43
2022-09-11T23:26:21.884Z,4.72
2022-09-11T23:28:48.404Z,4.70
2022-09-11T23:31:19.362Z,5.55
2022-09-11T23:33:46.392Z,4.72
2022-09-11T23:36:15.297Z,7.13
2022-09-11T23:38:46.262Z,3.58
2022-09-11T23:41:13.439Z,3.20
2022-09-11T23:43:39.867Z,12.20
2022-09-11T23:46:07.058Z,4.70
2022-09-11T23:48:33.822Z,5.43
2022-09-11T23:51:03.038Z,4.72
2022-09-11T23:53:30.363Z,6.75
2022-09-11T23:55:57.961Z,4.22
2022-09-11T23:58:24.994Z,4.20
